PWSweather.com
Personal Weather Stations
Station Observations
BREEJEDURP
'sGravenzande, WestlandNL

'sGravenzandeWestlandNL

Lat: 52.00095260000001, Lon: 4.174256600000035

Elevation: 3

Station Type: Davis Vantage Pro2 Plus

www.breejedurp.nl

High Low Average
Temperature 50.2°F10.1°C 45.0°F7.2°C 47.0°F8.3°C
Dew Point 49.0°F9.4°C 39.2°F4.0°C 43.0°F6.1°C
Winds 25.0 mph 40.2 kmh 2.0 mph 3.2 kmh 10.0 mph SW16.1 kmh SW
Wind Gusts 40.0 mph64.4 kmh 5.0 mph8.0 kmh 16.0 mph25.7 kmh
Humidity 97% 76% 86%
Pressure 29.48 in998.3 mb 29.18 in988.1 mb -
Precipitation 0.03 in0.8 mm - -
Hour Temp Dew Point Humidity Winds Wind Gusts Pressure Precip Precip Rate Daily Precip Total
12:04 AM 47.1°F8.4°C 41.6°F5.3°C 81% 17.0 mph WSW27.4 kmh WSW 26.0 mph41.8 kmh 29.47 in998.0 mb 0.00 in0.0 mm 0.00 in0.0 mm 0.00 in0.0 mm
12:09 AM 47.1°F8.4°C 41.6°F5.3°C 81% 10.0 mph WSW16.1 kmh WSW 16.0 mph25.7 kmh 29.47 in998.0 mb 0.00 in0.0 mm 0.00 in0.0 mm 0.00 in0.0 mm
12:14 AM 47.1°F8.4°C 41.6°F5.3°C 81% 10.0 mph SW16.1 kmh SW 16.0 mph25.7 kmh 29.47 in998.0 mb 0.00 in0.0 mm 0.00 in0.0 mm 0.00 in0.0 mm
12:19 AM 46.9°F8.3°C 41.4°F5.2°C 81% 13.0 mph W20.9 kmh W 21.0 mph33.8 kmh 29.47 in998.0 mb 0.00 in0.0 mm 0.00 in0.0 mm 0.00 in0.0 mm
12:24 AM 47.1°F8.4°C 41.3°F5.2°C 80% 12.0 mph W19.3 kmh W 21.0 mph33.8 kmh 29.47 in998.0 mb 0.00 in0.0 mm 0.00 in0.0 mm 0.00 in0.0 mm
12:29 AM 47.1°F8.4°C 41.6°F5.3°C 81% 12.0 mph W19.3 kmh W 17.0 mph27.4 kmh 29.47 in998.0 mb 0.00 in0.0 mm 0.00 in0.0 mm 0.00 in0.0 mm
12:34 AM 47.1°F8.4°C 41.6°F5.3°C 81% 12.0 mph WSW19.3 kmh WSW 22.0 mph35.4 kmh 29.47 in998.0 mb 0.00 in0.0 mm 0.00 in0.0 mm 0.00 in0.0 mm
12:39 AM 47.1°F8.4°C 41.3°F5.2°C 80% 12.0 mph W19.3 kmh W 21.0 mph33.8 kmh 29.47 in998.0 mb 0.00 in0.0 mm 0.00 in0.0 mm 0.00 in0.0 mm
12:44 AM 47.1°F8.4°C 41.3°F5.2°C 80% 13.0 mph WSW20.9 kmh WSW 18.0 mph29.0 kmh 29.47 in998.0 mb 0.00 in0.0 mm 0.00 in0.0 mm 0.00 in0.0 mm
12:49 AM 47.1°F8.4°C 41.3°F5.2°C 80% 12.0 mph SW19.3 kmh SW 15.0 mph24.1 kmh 29.47 in998.0 mb 0.00 in0.0 mm 0.00 in0.0 mm 0.00 in0.0 mm
12:54 AM 47.1°F8.4°C 41.3°F5.2°C 80% 12.0 mph SSW19.3 kmh SSW 18.0 mph29.0 kmh 29.47 in998.0 mb 0.00 in0.0 mm 0.00 in0.0 mm 0.00 in0.0 mm
12:59 AM 47.1°F8.4°C 41.3°F5.2°C 80% 14.0 mph W22.5 kmh W 27.0 mph43.5 kmh 29.47 in998.0 mb 0.00 in0.0 mm 0.00 in0.0 mm 0.00 in0.0 mm
01:04 AM 47.1°F8.4°C 41.3°F5.2°C 80% 10.0 mph WSW16.1 kmh WSW 13.0 mph20.9 kmh 29.47 in998.0 mb 0.00 in0.0 mm 0.00 in0.0 mm 0.00 in0.0 mm
01:09 AM 46.9°F8.3°C 41.4°F5.2°C 81% 12.0 mph WSW19.3 kmh WSW 16.0 mph25.7 kmh 29.47 in998.0 mb 0.00 in0.0 mm 0.00 in0.0 mm 0.00 in0.0 mm
01:14 AM 47.1°F8.4°C 41.6°F5.3°C 81% 10.0 mph SW16.1 kmh SW 15.0 mph24.1 kmh 29.46 in997.6 mb 0.00 in0.0 mm 0.00 in0.0 mm 0.00 in0.0 mm
01:19 AM 46.9°F8.3°C 41.4°F5.2°C 81% 12.0 mph SW19.3 kmh SW 17.0 mph27.4 kmh 29.46 in997.6 mb 0.00 in0.0 mm 0.00 in0.0 mm 0.00 in0.0 mm
01:24 AM 46.9°F8.3°C 41.4°F5.2°C 81% 11.0 mph SW17.7 kmh SW 20.0 mph32.2 kmh 29.46 in997.6 mb 0.00 in0.0 mm 0.00 in0.0 mm 0.00 in0.0 mm
01:29 AM 46.9°F8.3°C 41.4°F5.2°C 81% 9.0 mph WSW14.5 kmh WSW 14.0 mph22.5 kmh 29.47 in998.0 mb 0.00 in0.0 mm 0.00 in0.0 mm 0.00 in0.0 mm
01:34 AM 46.9°F8.3°C 41.4°F5.2°C 81% 10.0 mph W16.1 kmh W 16.0 mph25.7 kmh 29.47 in998.0 mb 0.00 in0.0 mm 0.00 in0.0 mm 0.00 in0.0 mm
01:39 AM 46.9°F8.3°C 41.7°F5.4°C 82% 11.0 mph SW17.7 kmh SW 21.0 mph33.8 kmh 29.47 in998.0 mb 0.00 in0.0 mm 0.00 in0.0 mm 0.00 in0.0 mm
01:44 AM 46.9°F8.3°C 41.7°F5.4°C 82% 14.0 mph WSW22.5 kmh WSW 20.0 mph32.2 kmh 29.46 in997.6 mb 0.00 in0.0 mm 0.00 in0.0 mm 0.00 in0.0 mm
01:49 AM 46.9°F8.3°C 41.7°F5.4°C 82% 13.0 mph WSW20.9 kmh WSW 29.0 mph46.7 kmh 29.47 in998.0 mb 0.00 in0.0 mm 0.00 in0.0 mm 0.00 in0.0 mm
01:54 AM 46.9°F8.3°C 41.7°F5.4°C 82% 13.0 mph SW20.9 kmh SW 21.0 mph33.8 kmh 29.46 in997.6 mb 0.00 in0.0 mm 0.00 in0.0 mm 0.00 in0.0 mm
01:59 AM 46.9°F8.3°C 41.4°F5.2°C 81% 15.0 mph WSW24.1 kmh WSW 23.0 mph37.0 kmh 29.47 in998.0 mb 0.00 in0.0 mm 0.00 in0.0 mm 0.00 in0.0 mm
02:04 AM 46.9°F8.3°C 41.4°F5.2°C 81% 12.0 mph WSW19.3 kmh WSW 17.0 mph27.4 kmh 29.47 in998.0 mb 0.00 in0.0 mm 0.00 in0.0 mm 0.00 in0.0 mm
02:09 AM 46.9°F8.3°C 41.4°F5.2°C 81% 11.0 mph SW17.7 kmh SW 15.0 mph24.1 kmh 29.47 in998.0 mb 0.00 in0.0 mm 0.00 in0.0 mm 0.00 in0.0 mm
02:14 AM 46.9°F8.3°C 41.4°F5.2°C 81% 10.0 mph SW16.1 kmh SW 21.0 mph33.8 kmh 29.47 in998.0 mb 0.00 in0.0 mm 0.00 in0.0 mm 0.00 in0.0 mm
02:19 AM 47.1°F8.4°C 41.6°F5.3°C 81% 11.0 mph SW17.7 kmh SW 15.0 mph24.1 kmh 29.47 in998.0 mb 0.00 in0.0 mm 0.00 in0.0 mm 0.00 in0.0 mm
02:24 AM 46.9°F8.3°C 41.4°F5.2°C 81% 6.0 mph SW9.7 kmh SW 9.0 mph14.5 kmh 29.48 in998.3 mb 0.00 in0.0 mm 0.00 in0.0 mm 0.00 in0.0 mm
02:29 AM 46.9°F8.3°C 41.4°F5.2°C 81% 13.0 mph SW20.9 kmh SW 17.0 mph27.4 kmh 29.48 in998.3 mb 0.00 in0.0 mm 0.00 in0.0 mm 0.00 in0.0 mm
02:34 AM 47.1°F8.4°C 41.9°F5.5°C 82% 7.0 mph SW11.3 kmh SW 13.0 mph20.9 kmh 29.48 in998.3 mb 0.00 in0.0 mm 0.00 in0.0 mm 0.00 in0.0 mm
02:39 AM 46.9°F8.3°C 41.7°F5.4°C 82% 9.0 mph SW14.5 kmh SW 14.0 mph22.5 kmh 29.48 in998.3 mb 0.00 in0.0 mm 0.00 in0.0 mm 0.00 in0.0 mm
02:44 AM 47.1°F8.4°C 41.9°F5.5°C 82% 8.0 mph WSW12.9 kmh WSW 12.0 mph19.3 kmh 29.48 in998.3 mb 0.00 in0.0 mm 0.00 in0.0 mm 0.00 in0.0 mm
02:49 AM 47.1°F8.4°C 41.9°F5.5°C 82% 7.0 mph SW11.3 kmh SW 12.0 mph19.3 kmh 29.48 in998.3 mb 0.00 in0.0 mm 0.00 in0.0 mm 0.00 in0.0 mm
02:54 AM 46.9°F8.3°C 41.7°F5.4°C 82% 12.0 mph SW19.3 kmh SW 19.0 mph30.6 kmh 29.48 in998.3 mb 0.00 in0.0 mm 0.00 in0.0 mm 0.00 in0.0 mm
02:59 AM 46.9°F8.3°C 41.7°F5.4°C 82% 13.0 mph W20.9 kmh W 16.0 mph25.7 kmh 29.48 in998.3 mb 0.00 in0.0 mm 0.00 in0.0 mm 0.00 in0.0 mm
03:04 AM 46.8°F8.2°C 41.6°F5.3°C 82% 11.0 mph WSW17.7 kmh WSW 17.0 mph27.4 kmh 29.48 in998.3 mb 0.00 in0.0 mm 0.00 in0.0 mm 0.00 in0.0 mm
03:09 AM 46.8°F8.2°C 41.9°F5.5°C 83% 7.0 mph WSW11.3 kmh WSW 13.0 mph20.9 kmh 29.47 in998.0 mb 0.00 in0.0 mm 0.00 in0.0 mm 0.00 in0.0 mm
03:14 AM 46.8°F8.2°C 41.9°F5.5°C 83% 10.0 mph WSW16.1 kmh WSW 16.0 mph25.7 kmh 29.47 in998.0 mb 0.00 in0.0 mm 0.00 in0.0 mm 0.00 in0.0 mm
03:19 AM 46.6°F8.1°C 41.7°F5.4°C 83% 12.0 mph SW19.3 kmh SW 19.0 mph30.6 kmh 29.47 in998.0 mb 0.00 in0.0 mm 0.00 in0.0 mm 0.00 in0.0 mm
03:24 AM 46.8°F8.2°C 41.9°F5.5°C 83% 9.0 mph WSW14.5 kmh WSW 19.0 mph30.6 kmh 29.47 in998.0 mb 0.00 in0.0 mm 0.00 in0.0 mm 0.00 in0.0 mm
03:29 AM 46.6°F8.1°C 41.7°F5.4°C 83% 4.0 mph W6.4 kmh W 9.0 mph14.5 kmh 29.47 in998.0 mb 0.00 in0.0 mm 0.00 in0.0 mm 0.00 in0.0 mm
03:34 AM 46.6°F8.1°C 42.0°F5.6°C 84% 8.0 mph SSW12.9 kmh SSW 13.0 mph20.9 kmh 29.47 in998.0 mb 0.00 in0.0 mm 0.00 in0.0 mm 0.00 in0.0 mm
03:39 AM 46.6°F8.1°C 41.7°F5.4°C 83% 9.0 mph SW14.5 kmh SW 14.0 mph22.5 kmh 29.47 in998.0 mb 0.00 in0.0 mm 0.00 in0.0 mm 0.00 in0.0 mm
03:44 AM 46.8°F8.2°C 41.9°F5.5°C 83% 10.0 mph SW16.1 kmh SW 18.0 mph29.0 kmh 29.47 in998.0 mb 0.00 in0.0 mm 0.00 in0.0 mm 0.00 in0.0 mm
03:49 AM 46.8°F8.2°C 41.6°F5.3°C 82% 12.0 mph W19.3 kmh W 21.0 mph33.8 kmh 29.47 in998.0 mb 0.00 in0.0 mm 0.00 in0.0 mm 0.00 in0.0 mm
03:54 AM 46.8°F8.2°C 41.6°F5.3°C 82% 9.0 mph SW14.5 kmh SW 17.0 mph27.4 kmh 29.47 in998.0 mb 0.00 in0.0 mm 0.00 in0.0 mm 0.00 in0.0 mm
03:59 AM 46.8°F8.2°C 41.6°F5.3°C 82% 8.0 mph WSW12.9 kmh WSW 13.0 mph20.9 kmh 29.47 in998.0 mb 0.00 in0.0 mm 0.00 in0.0 mm 0.00 in0.0 mm
04:04 AM 46.6°F8.1°C 41.7°F5.4°C 83% 10.0 mph SW16.1 kmh SW 17.0 mph27.4 kmh 29.47 in998.0 mb 0.00 in0.0 mm 0.00 in0.0 mm 0.00 in0.0 mm
04:09 AM 46.6°F8.1°C 41.7°F5.4°C 83% 11.0 mph WSW17.7 kmh WSW 21.0 mph33.8 kmh 29.47 in998.0 mb 0.00 in0.0 mm 0.00 in0.0 mm 0.00 in0.0 mm
04:14 AM 46.6°F8.1°C 41.7°F5.4°C 83% 10.0 mph WSW16.1 kmh WSW 20.0 mph32.2 kmh 29.47 in998.0 mb 0.00 in0.0 mm 0.00 in0.0 mm 0.00 in0.0 mm
04:19 AM 46.6°F8.1°C 41.7°F5.4°C 83% 8.0 mph W12.9 kmh W 18.0 mph29.0 kmh 29.47 in998.0 mb 0.00 in0.0 mm 0.00 in0.0 mm 0.00 in0.0 mm
04:24 AM 46.4°F8.0°C 41.5°F5.3°C 83% 9.0 mph WSW14.5 kmh WSW 15.0 mph24.1 kmh 29.47 in998.0 mb 0.00 in0.0 mm 0.00 in0.0 mm 0.00 in0.0 mm
04:29 AM 46.4°F8.0°C 41.5°F5.3°C 83% 13.0 mph WSW20.9 kmh WSW 17.0 mph27.4 kmh 29.47 in998.0 mb 0.00 in0.0 mm 0.00 in0.0 mm 0.00 in0.0 mm
04:34 AM 46.2°F7.9°C 41.7°F5.4°C 84% 9.0 mph WSW14.5 kmh WSW 14.0 mph22.5 kmh 29.47 in998.0 mb 0.00 in0.0 mm 0.00 in0.0 mm 0.00 in0.0 mm
04:39 AM 46.2°F7.9°C 41.7°F5.4°C 84% 15.0 mph W24.1 kmh W 23.0 mph37.0 kmh 29.47 in998.0 mb 0.00 in0.0 mm 0.00 in0.0 mm 0.00 in0.0 mm
04:44 AM 46.2°F7.9°C 41.7°F5.4°C 84% 9.0 mph WSW14.5 kmh WSW 16.0 mph25.7 kmh 29.47 in998.0 mb 0.00 in0.0 mm 0.00 in0.0 mm 0.00 in0.0 mm
04:49 AM 46.2°F7.9°C 41.7°F5.4°C 84% 10.0 mph W16.1 kmh W 16.0 mph25.7 kmh 29.47 in998.0 mb 0.00 in0.0 mm 0.00 in0.0 mm 0.00 in0.0 mm
04:54 AM 46.2°F7.9°C 41.4°F5.2°C 83% 8.0 mph SW12.9 kmh SW 15.0 mph24.1 kmh 29.47 in998.0 mb 0.00 in0.0 mm 0.00 in0.0 mm 0.00 in0.0 mm
04:59 AM 46.2°F7.9°C 41.4°F5.2°C 83% 11.0 mph WSW17.7 kmh WSW 17.0 mph27.4 kmh 29.47 in998.0 mb 0.00 in0.0 mm 0.00 in0.0 mm 0.00 in0.0 mm
05:04 AM 46.4°F8.0°C 41.5°F5.3°C 83% 7.0 mph SW11.3 kmh SW 11.0 mph17.7 kmh 29.47 in998.0 mb 0.00 in0.0 mm 0.00 in0.0 mm 0.00 in0.0 mm
05:09 AM 46.6°F8.1°C 41.7°F5.4°C 83% 9.0 mph WSW14.5 kmh WSW 13.0 mph20.9 kmh 29.47 in998.0 mb 0.00 in0.0 mm 0.00 in0.0 mm 0.00 in0.0 mm
05:14 AM 46.4°F8.0°C 41.8°F5.4°C 84% 7.0 mph SW11.3 kmh SW 10.0 mph16.1 kmh 29.47 in998.0 mb 0.00 in0.0 mm 0.00 in0.0 mm 0.00 in0.0 mm
05:19 AM 46.6°F8.1°C 42.0°F5.6°C 84% 7.0 mph SW11.3 kmh SW 11.0 mph17.7 kmh 29.47 in998.0 mb 0.00 in0.0 mm 0.00 in0.0 mm 0.00 in0.0 mm
05:24 AM 46.4°F8.0°C 41.8°F5.4°C 84% 5.0 mph SW8.0 kmh SW 12.0 mph19.3 kmh 29.47 in998.0 mb 0.00 in0.0 mm 0.00 in0.0 mm 0.00 in0.0 mm
05:29 AM 46.4°F8.0°C 42.1°F5.6°C 85% 8.0 mph SSW12.9 kmh SSW 11.0 mph17.7 kmh 29.47 in998.0 mb 0.00 in0.0 mm 0.00 in0.0 mm 0.00 in0.0 mm
05:34 AM 46.4°F8.0°C 42.4°F5.8°C 86% 9.0 mph SW14.5 kmh SW 14.0 mph22.5 kmh 29.46 in997.6 mb 0.00 in0.0 mm 0.00 in0.0 mm 0.00 in0.0 mm
05:39 AM 46.4°F8.0°C 42.4°F5.8°C 86% 9.0 mph SW14.5 kmh SW 13.0 mph20.9 kmh 29.46 in997.6 mb 0.00 in0.0 mm 0.00 in0.0 mm 0.00 in0.0 mm
05:44 AM 46.2°F7.9°C 42.3°F5.7°C 86% 9.0 mph W14.5 kmh W 14.0 mph22.5 kmh 29.46 in997.6 mb 0.00 in0.0 mm 0.00 in0.0 mm 0.00 in0.0 mm
05:49 AM 46.2°F7.9°C 42.3°F5.7°C 86% 7.0 mph WSW11.3 kmh WSW 11.0 mph17.7 kmh 29.46 in997.6 mb 0.00 in0.0 mm 0.00 in0.0 mm 0.00 in0.0 mm
05:54 AM 46.4°F8.0°C 42.4°F5.8°C 86% 9.0 mph SW14.5 kmh SW 14.0 mph22.5 kmh 29.45 in997.3 mb 0.00 in0.0 mm 0.00 in0.0 mm 0.00 in0.0 mm
05:59 AM 46.4°F8.0°C 42.4°F5.8°C 86% 7.0 mph WSW11.3 kmh WSW 11.0 mph17.7 kmh 29.45 in997.3 mb 0.00 in0.0 mm 0.00 in0.0 mm 0.00 in0.0 mm
06:04 AM 46.4°F8.0°C 42.1°F5.6°C 85% 5.0 mph WSW8.0 kmh WSW 13.0 mph20.9 kmh 29.45 in997.3 mb 0.00 in0.0 mm 0.00 in0.0 mm 0.00 in0.0 mm
06:09 AM 46.4°F8.0°C 42.1°F5.6°C 85% 9.0 mph W14.5 kmh W 16.0 mph25.7 kmh 29.45 in997.3 mb 0.00 in0.0 mm 0.00 in0.0 mm 0.00 in0.0 mm
06:14 AM 46.4°F8.0°C 42.1°F5.6°C 85% 7.0 mph SW11.3 kmh SW 11.0 mph17.7 kmh 29.44 in997.0 mb 0.00 in0.0 mm 0.00 in0.0 mm 0.00 in0.0 mm
06:19 AM 46.4°F8.0°C 42.1°F5.6°C 85% 10.0 mph SW16.1 kmh SW 16.0 mph25.7 kmh 29.45 in997.3 mb 0.00 in0.0 mm 0.00 in0.0 mm 0.00 in0.0 mm
06:24 AM 46.6°F8.1°C 42.3°F5.7°C 85% 9.0 mph WSW14.5 kmh WSW 16.0 mph25.7 kmh 29.44 in997.0 mb 0.00 in0.0 mm 0.00 in0.0 mm 0.00 in0.0 mm
06:29 AM 46.6°F8.1°C 42.3°F5.7°C 85% 7.0 mph SSW11.3 kmh SSW 11.0 mph17.7 kmh 29.44 in997.0 mb 0.00 in0.0 mm 0.00 in0.0 mm 0.00 in0.0 mm
06:34 AM 46.4°F8.0°C 42.1°F5.6°C 85% 7.0 mph WSW11.3 kmh WSW 14.0 mph22.5 kmh 29.44 in997.0 mb 0.00 in0.0 mm 0.00 in0.0 mm 0.00 in0.0 mm
06:39 AM 46.2°F7.9°C 42.3°F5.7°C 86% 9.0 mph SW14.5 kmh SW 14.0 mph22.5 kmh 29.44 in997.0 mb 0.00 in0.0 mm 0.00 in0.0 mm 0.00 in0.0 mm
06:44 AM 46.2°F7.9°C 42.3°F5.7°C 86% 7.0 mph SW11.3 kmh SW 12.0 mph19.3 kmh 29.44 in997.0 mb 0.00 in0.0 mm 0.00 in0.0 mm 0.00 in0.0 mm
06:49 AM 46.2°F7.9°C 42.3°F5.7°C 86% 4.0 mph WSW6.4 kmh WSW 8.0 mph12.9 kmh 29.44 in997.0 mb 0.00 in0.0 mm 0.00 in0.0 mm 0.00 in0.0 mm
06:54 AM 46.2°F7.9°C 42.3°F5.7°C 86% 9.0 mph SW14.5 kmh SW 14.0 mph22.5 kmh 29.44 in997.0 mb 0.00 in0.0 mm 0.00 in0.0 mm 0.00 in0.0 mm
06:59 AM 46.2°F7.9°C 42.3°F5.7°C 86% 9.0 mph SW14.5 kmh SW 16.0 mph25.7 kmh 29.44 in997.0 mb 0.00 in0.0 mm 0.00 in0.0 mm 0.00 in0.0 mm
07:04 AM 46.4°F8.0°C 42.4°F5.8°C 86% 6.0 mph SW9.7 kmh SW 11.0 mph17.7 kmh 29.44 in997.0 mb 0.00 in0.0 mm 0.00 in0.0 mm 0.00 in0.0 mm
07:09 AM 46.4°F8.0°C 42.4°F5.8°C 86% 9.0 mph WSW14.5 kmh WSW 14.0 mph22.5 kmh 29.44 in997.0 mb 0.00 in0.0 mm 0.00 in0.0 mm 0.00 in0.0 mm
07:14 AM 46.6°F8.1°C 42.6°F5.9°C 86% 6.0 mph SSW9.7 kmh SSW 9.0 mph14.5 kmh 29.44 in997.0 mb 0.00 in0.0 mm 0.00 in0.0 mm 0.00 in0.0 mm
07:19 AM 46.2°F7.9°C 42.3°F5.7°C 86% 6.0 mph SW9.7 kmh SW 11.0 mph17.7 kmh 29.44 in997.0 mb 0.00 in0.0 mm 0.00 in0.0 mm 0.00 in0.0 mm
07:24 AM 46.2°F7.9°C 42.6°F5.9°C 87% 9.0 mph SW14.5 kmh SW 14.0 mph22.5 kmh 29.44 in997.0 mb 0.00 in0.0 mm 0.00 in0.0 mm 0.00 in0.0 mm
07:29 AM 46.0°F7.8°C 42.4°F5.8°C 87% 9.0 mph SW14.5 kmh SW 14.0 mph22.5 kmh 29.43 in996.6 mb 0.00 in0.0 mm 0.00 in0.0 mm 0.00 in0.0 mm
07:34 AM 46.0°F7.8°C 42.4°F5.8°C 87% 8.0 mph SSW12.9 kmh SSW 12.0 mph19.3 kmh 29.43 in996.6 mb 0.00 in0.0 mm 0.00 in0.0 mm 0.00 in0.0 mm
07:39 AM 46.0°F7.8°C 42.4°F5.8°C 87% 7.0 mph SSW11.3 kmh SSW 14.0 mph22.5 kmh 29.43 in996.6 mb 0.00 in0.0 mm 0.00 in0.0 mm 0.00 in0.0 mm
07:44 AM 46.0°F7.8°C 42.7°F5.9°C 88% 8.0 mph SW12.9 kmh SW 11.0 mph17.7 kmh 29.43 in996.6 mb 0.00 in0.0 mm 0.00 in0.0 mm 0.00 in0.0 mm
07:49 AM 45.9°F7.7°C 42.5°F5.8°C 88% 5.0 mph SSW8.0 kmh SSW 8.0 mph12.9 kmh 29.43 in996.6 mb 0.00 in0.0 mm 0.00 in0.0 mm 0.00 in0.0 mm
07:54 AM 45.9°F7.7°C 42.5°F5.8°C 88% 7.0 mph SW11.3 kmh SW 9.0 mph14.5 kmh 29.43 in996.6 mb 0.00 in0.0 mm 0.00 in0.0 mm 0.00 in0.0 mm
07:59 AM 46.0°F7.8°C 42.7°F5.9°C 88% 7.0 mph WSW11.3 kmh WSW 14.0 mph22.5 kmh 29.43 in996.6 mb 0.00 in0.0 mm 0.00 in0.0 mm 0.00 in0.0 mm
08:04 AM 46.0°F7.8°C 42.7°F5.9°C 88% 4.0 mph SW6.4 kmh SW 6.0 mph9.7 kmh 29.43 in996.6 mb 0.00 in0.0 mm 0.00 in0.0 mm 0.00 in0.0 mm
08:09 AM 46.0°F7.8°C 42.7°F5.9°C 88% 7.0 mph SW11.3 kmh SW 10.0 mph16.1 kmh 29.43 in996.6 mb 0.00 in0.0 mm 0.00 in0.0 mm 0.00 in0.0 mm
08:14 AM 45.9°F7.7°C 42.5°F5.8°C 88% 6.0 mph SW9.7 kmh SW 11.0 mph17.7 kmh 29.43 in996.6 mb 0.00 in0.0 mm 0.00 in0.0 mm 0.00 in0.0 mm
08:19 AM 45.9°F7.7°C 42.5°F5.8°C 88% 9.0 mph SW14.5 kmh SW 16.0 mph25.7 kmh 29.43 in996.6 mb 0.00 in0.0 mm 0.00 in0.0 mm 0.00 in0.0 mm
08:24 AM 45.9°F7.7°C 42.5°F5.8°C 88% 8.0 mph SW12.9 kmh SW 12.0 mph19.3 kmh 29.43 in996.6 mb 0.00 in0.0 mm 0.00 in0.0 mm 0.00 in0.0 mm
08:29 AM 45.9°F7.7°C 42.5°F5.8°C 88% 8.0 mph SSW12.9 kmh SSW 11.0 mph17.7 kmh 29.43 in996.6 mb 0.00 in0.0 mm 0.00 in0.0 mm 0.00 in0.0 mm
08:34 AM 45.9°F7.7°C 42.5°F5.8°C 88% 6.0 mph SSW9.7 kmh SSW 7.0 mph11.3 kmh 29.42 in996.3 mb 0.00 in0.0 mm 0.00 in0.0 mm 0.00 in0.0 mm
08:39 AM 45.9°F7.7°C 42.5°F5.8°C 88% 5.0 mph SW8.0 kmh SW 9.0 mph14.5 kmh 29.42 in996.3 mb 0.00 in0.0 mm 0.00 in0.0 mm 0.00 in0.0 mm
08:44 AM 45.7°F7.6°C 42.3°F5.7°C 88% 5.0 mph S8.0 kmh S 7.0 mph11.3 kmh 29.41 in995.9 mb 0.00 in0.0 mm 0.00 in0.0 mm 0.00 in0.0 mm
08:49 AM 45.7°F7.6°C 42.3°F5.7°C 88% 8.0 mph SW12.9 kmh SW 14.0 mph22.5 kmh 29.41 in995.9 mb 0.00 in0.0 mm 0.00 in0.0 mm 0.00 in0.0 mm
08:54 AM 45.7°F7.6°C 42.3°F5.7°C 88% 8.0 mph SW12.9 kmh SW 12.0 mph19.3 kmh 29.41 in995.9 mb 0.00 in0.0 mm 0.00 in0.0 mm 0.00 in0.0 mm
08:59 AM 45.9°F7.7°C 42.5°F5.8°C 88% 8.0 mph SW12.9 kmh SW 12.0 mph19.3 kmh 29.41 in995.9 mb 0.00 in0.0 mm 0.00 in0.0 mm 0.00 in0.0 mm
09:04 AM 45.9°F7.7°C 42.5°F5.8°C 88% 6.0 mph SSW9.7 kmh SSW 8.0 mph12.9 kmh 29.41 in995.9 mb 0.00 in0.0 mm 0.00 in0.0 mm 0.00 in0.0 mm
09:09 AM 45.9°F7.7°C 42.5°F5.8°C 88% 6.0 mph SW9.7 kmh SW 11.0 mph17.7 kmh 29.41 in995.9 mb 0.00 in0.0 mm 0.00 in0.0 mm 0.00 in0.0 mm
09:14 AM 45.9°F7.7°C 42.5°F5.8°C 88% 7.0 mph SW11.3 kmh SW 11.0 mph17.7 kmh 29.40 in995.6 mb 0.00 in0.0 mm 0.00 in0.0 mm 0.00 in0.0 mm
09:19 AM 45.9°F7.7°C 42.5°F5.8°C 88% 4.0 mph SSW6.4 kmh SSW 7.0 mph11.3 kmh 29.40 in995.6 mb 0.00 in0.0 mm 0.00 in0.0 mm 0.00 in0.0 mm
09:24 AM 45.9°F7.7°C 42.5°F5.8°C 88% 5.0 mph SSW8.0 kmh SSW 8.0 mph12.9 kmh 29.40 in995.6 mb 0.00 in0.0 mm 0.00 in0.0 mm 0.00 in0.0 mm
09:29 AM 45.9°F7.7°C 42.5°F5.8°C 88% 4.0 mph SW6.4 kmh SW 8.0 mph12.9 kmh 29.40 in995.6 mb 0.00 in0.0 mm 0.00 in0.0 mm 0.00 in0.0 mm
09:34 AM 45.9°F7.7°C 42.5°F5.8°C 88% 6.0 mph SSW9.7 kmh SSW 7.0 mph11.3 kmh 29.40 in995.6 mb 0.00 in0.0 mm 0.00 in0.0 mm 0.00 in0.0 mm
09:39 AM 45.9°F7.7°C 42.5°F5.8°C 88% 6.0 mph S9.7 kmh S 8.0 mph12.9 kmh 29.40 in995.6 mb 0.00 in0.0 mm 0.00 in0.0 mm 0.00 in0.0 mm
09:44 AM 45.9°F7.7°C 42.5°F5.8°C 88% 5.0 mph SW8.0 kmh SW 8.0 mph12.9 kmh 29.40 in995.6 mb 0.00 in0.0 mm 0.00 in0.0 mm 0.00 in0.0 mm
09:49 AM 46.0°F7.8°C 42.4°F5.8°C 87% 4.0 mph SW6.4 kmh SW 6.0 mph9.7 kmh 29.39 in995.3 mb 0.00 in0.0 mm 0.00 in0.0 mm 0.00 in0.0 mm
09:54 AM 46.0°F7.8°C 42.4°F5.8°C 87% 6.0 mph SSW9.7 kmh SSW 8.0 mph12.9 kmh 29.39 in995.3 mb 0.00 in0.0 mm 0.00 in0.0 mm 0.00 in0.0 mm
09:59 AM 45.9°F7.7°C 42.2°F5.7°C 87% 5.0 mph S8.0 kmh S 7.0 mph11.3 kmh 29.40 in995.6 mb 0.00 in0.0 mm 0.00 in0.0 mm 0.00 in0.0 mm
10:04 AM 45.9°F7.7°C 42.5°F5.8°C 88% 3.0 mph S4.8 kmh S 5.0 mph8.0 kmh 29.39 in995.3 mb 0.00 in0.0 mm 0.00 in0.0 mm 0.00 in0.0 mm
10:09 AM 45.7°F7.6°C 42.6°F5.9°C 89% 5.0 mph SSW8.0 kmh SSW 7.0 mph11.3 kmh 29.39 in995.3 mb 0.00 in0.0 mm 0.00 in0.0 mm 0.00 in0.0 mm
10:14 AM 45.7°F7.6°C 42.6°F5.9°C 89% 5.0 mph S8.0 kmh S 6.0 mph9.7 kmh 29.39 in995.3 mb 0.00 in0.0 mm 0.00 in0.0 mm 0.00 in0.0 mm
10:19 AM 45.7°F7.6°C 42.6°F5.9°C 89% 4.0 mph S6.4 kmh S 8.0 mph12.9 kmh 29.39 in995.3 mb 0.00 in0.0 mm 0.00 in0.0 mm 0.00 in0.0 mm
10:24 AM 45.7°F7.6°C 42.9°F6.1°C 90% 2.0 mph SSE3.2 kmh SSE 5.0 mph8.0 kmh 29.39 in995.3 mb 0.00 in0.0 mm 0.00 in0.0 mm 0.00 in0.0 mm
10:29 AM 45.7°F7.6°C 42.9°F6.1°C 90% 4.0 mph SE6.4 kmh SE 7.0 mph11.3 kmh 29.38 in994.9 mb 0.00 in0.0 mm 0.00 in0.0 mm 0.00 in0.0 mm
10:34 AM 45.3°F7.4°C 42.6°F5.9°C 90% 4.0 mph S6.4 kmh S 5.0 mph8.0 kmh 29.37 in994.6 mb 0.00 in0.0 mm 0.00 in0.0 mm 0.00 in0.0 mm
10:39 AM 45.3°F7.4°C 42.9°F6.1°C 91% 4.0 mph SE6.4 kmh SE 7.0 mph11.3 kmh 29.38 in994.9 mb 0.00 in0.0 mm 0.00 in0.0 mm 0.00 in0.0 mm
10:44 AM 45.1°F7.3°C 42.7°F5.9°C 91% 6.0 mph SSE9.7 kmh SSE 9.0 mph14.5 kmh 29.37 in994.6 mb 0.00 in0.0 mm 0.00 in0.0 mm 0.00 in0.0 mm
10:49 AM 45.1°F7.3°C 42.7°F5.9°C 91% 3.0 mph S4.8 kmh S 5.0 mph8.0 kmh 29.36 in994.2 mb 0.00 in0.0 mm 0.00 in0.0 mm 0.00 in0.0 mm
10:54 AM 45.1°F7.3°C 42.7°F5.9°C 91% 5.0 mph S8.0 kmh S 7.0 mph11.3 kmh 29.36 in994.2 mb 0.00 in0.0 mm 0.00 in0.0 mm 0.00 in0.0 mm
10:59 AM 45.3°F7.4°C 42.6°F5.9°C 90% 4.0 mph SSW6.4 kmh SSW 5.0 mph8.0 kmh 29.36 in994.2 mb 0.00 in0.0 mm 0.00 in0.0 mm 0.00 in0.0 mm
11:04 AM 45.5°F7.5°C 42.7°F5.9°C 90% 5.0 mph SSW8.0 kmh SSW 7.0 mph11.3 kmh 29.36 in994.2 mb 0.00 in0.0 mm 0.00 in0.0 mm 0.00 in0.0 mm
11:09 AM 45.5°F7.5°C 42.5°F5.8°C 89% 4.0 mph S6.4 kmh S 7.0 mph11.3 kmh 29.36 in994.2 mb 0.00 in0.0 mm 0.00 in0.0 mm 0.00 in0.0 mm
11:14 AM 45.5°F7.5°C 42.5°F5.8°C 89% 5.0 mph S8.0 kmh S 9.0 mph14.5 kmh 29.36 in994.2 mb 0.00 in0.0 mm 0.00 in0.0 mm 0.00 in0.0 mm
11:19 AM 45.3°F7.4°C 42.0°F5.6°C 88% 7.0 mph S11.3 kmh S 12.0 mph19.3 kmh 29.36 in994.2 mb 0.00 in0.0 mm 0.00 in0.0 mm 0.00 in0.0 mm
11:24 AM 45.3°F7.4°C 42.0°F5.6°C 88% 6.0 mph SE9.7 kmh SE 11.0 mph17.7 kmh 29.35 in993.9 mb 0.00 in0.0 mm 0.00 in0.0 mm 0.00 in0.0 mm
11:29 AM 45.3°F7.4°C 42.0°F5.6°C 88% 6.0 mph SE9.7 kmh SE 9.0 mph14.5 kmh 29.35 in993.9 mb 0.00 in0.0 mm 0.00 in0.0 mm 0.00 in0.0 mm
11:34 AM 45.3°F7.4°C 42.0°F5.6°C 88% 4.0 mph SE6.4 kmh SE 7.0 mph11.3 kmh 29.35 in993.9 mb 0.00 in0.0 mm 0.00 in0.0 mm 0.00 in0.0 mm
11:39 AM 45.3°F7.4°C 42.0°F5.6°C 88% 5.0 mph SE8.0 kmh SE 9.0 mph14.5 kmh 29.35 in993.9 mb 0.00 in0.0 mm 0.00 in0.0 mm 0.00 in0.0 mm
11:44 AM 45.3°F7.4°C 42.0°F5.6°C 88% 6.0 mph SSE9.7 kmh SSE 9.0 mph14.5 kmh 29.34 in993.6 mb 0.00 in0.0 mm 0.00 in0.0 mm 0.00 in0.0 mm
11:49 AM 45.1°F7.3°C 42.1°F5.6°C 89% 6.0 mph SE9.7 kmh SE 9.0 mph14.5 kmh 29.34 in993.6 mb 0.00 in0.0 mm 0.00 in0.0 mm 0.00 in0.0 mm
11:54 AM 45.1°F7.3°C 42.4°F5.8°C 90% 5.0 mph SE8.0 kmh SE 7.0 mph11.3 kmh 29.34 in993.6 mb 0.00 in0.0 mm 0.00 in0.0 mm 0.00 in0.0 mm
11:59 AM 45.1°F7.3°C 42.4°F5.8°C 90% 4.0 mph S6.4 kmh S 6.0 mph9.7 kmh 29.34 in993.6 mb 0.00 in0.0 mm 0.00 in0.0 mm 0.00 in0.0 mm
12:04 PM 45.1°F7.3°C 42.7°F5.9°C 91% 5.0 mph SSE8.0 kmh SSE 7.0 mph11.3 kmh 29.33 in993.2 mb 0.00 in0.0 mm 0.00 in0.0 mm 0.00 in0.0 mm
12:09 PM 45.0°F7.2°C 42.5°F5.8°C 91% 7.0 mph SE11.3 kmh SE 10.0 mph16.1 kmh 29.32 in992.9 mb 0.00 in0.0 mm 0.00 in0.0 mm 0.01 in0.3 mm
12:14 PM 45.0°F7.2°C 42.5°F5.8°C 91% 6.0 mph S9.7 kmh S 10.0 mph16.1 kmh 29.32 in992.9 mb 0.00 in0.0 mm 0.00 in0.0 mm 0.01 in0.3 mm
12:19 PM 45.0°F7.2°C 42.8°F6.0°C 92% 5.0 mph SSE8.0 kmh SSE 8.0 mph12.9 kmh 29.31 in992.6 mb 0.00 in0.0 mm 0.00 in0.0 mm 0.01 in0.3 mm
12:24 PM 45.3°F7.4°C 43.1°F6.2°C 92% 4.0 mph SE6.4 kmh SE 5.0 mph8.0 kmh 29.31 in992.6 mb 0.00 in0.0 mm 0.00 in0.0 mm 0.01 in0.3 mm
12:29 PM 45.5°F7.5°C 43.3°F6.3°C 92% 5.0 mph SSE8.0 kmh SSE 9.0 mph14.5 kmh 29.30 in992.2 mb 0.00 in0.0 mm 0.00 in0.0 mm 0.01 in0.3 mm
12:34 PM 45.7°F7.6°C 43.8°F6.6°C 93% 5.0 mph SE8.0 kmh SE 8.0 mph12.9 kmh 29.30 in992.2 mb 0.00 in0.0 mm 0.00 in0.0 mm 0.01 in0.3 mm
12:39 PM 45.7°F7.6°C 43.8°F6.6°C 93% 3.0 mph SE4.8 kmh SE 5.0 mph8.0 kmh 29.30 in992.2 mb 0.00 in0.0 mm 0.00 in0.0 mm 0.01 in0.3 mm
12:43 PM 45.9°F7.7°C 43.7°F6.5°C 92% 4.0 mph SE6.4 kmh SE 8.0 mph12.9 kmh 29.29 in991.9 mb 0.00 in0.0 mm 0.00 in0.0 mm 0.01 in0.3 mm
12:49 PM 45.7°F7.6°C 43.5°F6.4°C 92% 4.0 mph SE6.4 kmh SE 7.0 mph11.3 kmh 29.29 in991.9 mb 0.00 in0.0 mm 0.00 in0.0 mm 0.01 in0.3 mm
12:54 PM 45.9°F7.7°C 43.7°F6.5°C 92% 6.0 mph SE9.7 kmh SE 8.0 mph12.9 kmh 29.28 in991.5 mb 0.00 in0.0 mm 0.00 in0.0 mm 0.01 in0.3 mm
12:59 PM 45.9°F7.7°C 43.7°F6.5°C 92% 7.0 mph SE11.3 kmh SE 9.0 mph14.5 kmh 29.28 in991.5 mb 0.00 in0.0 mm 0.00 in0.0 mm 0.01 in0.3 mm
01:04 PM 45.9°F7.7°C 44.0°F6.7°C 93% 4.0 mph SE6.4 kmh SE 6.0 mph9.7 kmh 29.27 in991.2 mb 0.00 in0.0 mm 0.00 in0.0 mm 0.01 in0.3 mm
01:09 PM 45.9°F7.7°C 44.2°F6.8°C 94% 6.0 mph SE9.7 kmh SE 9.0 mph14.5 kmh 29.27 in991.2 mb 0.00 in0.0 mm 0.00 in0.0 mm 0.01 in0.3 mm
01:14 PM 45.9°F7.7°C 44.2°F6.8°C 94% 7.0 mph SE11.3 kmh SE 9.0 mph14.5 kmh 29.27 in991.2 mb 0.00 in0.0 mm 0.00 in0.0 mm 0.01 in0.3 mm
01:19 PM 45.9°F7.7°C 44.2°F6.8°C 94% 5.0 mph ESE8.0 kmh ESE 10.0 mph16.1 kmh 29.26 in990.9 mb 0.00 in0.0 mm 0.00 in0.0 mm 0.01 in0.3 mm
01:24 PM 45.9°F7.7°C 44.5°F6.9°C 95% 6.0 mph SE9.7 kmh SE 9.0 mph14.5 kmh 29.26 in990.9 mb 0.00 in0.0 mm 0.00 in0.0 mm 0.02 in0.5 mm
01:29 PM 45.9°F7.7°C 44.5°F6.9°C 95% 6.0 mph SE9.7 kmh SE 9.0 mph14.5 kmh 29.26 in990.9 mb 0.00 in0.0 mm 0.00 in0.0 mm 0.02 in0.5 mm
01:34 PM 45.9°F7.7°C 44.5°F6.9°C 95% 6.0 mph SE9.7 kmh SE 10.0 mph16.1 kmh 29.25 in990.5 mb 0.00 in0.0 mm 0.00 in0.0 mm 0.02 in0.5 mm
01:39 PM 45.9°F7.7°C 44.5°F6.9°C 95% 6.0 mph SE9.7 kmh SE 10.0 mph16.1 kmh 29.25 in990.5 mb 0.01 in0.3 mm 0.10 in2.5 mm 0.02 in0.5 mm
01:44 PM 46.0°F7.8°C 45.0°F7.2°C 96% 6.0 mph ESE9.7 kmh ESE 9.0 mph14.5 kmh 29.25 in990.5 mb 0.00 in0.0 mm 0.00 in0.0 mm 0.02 in0.5 mm
01:49 PM 46.0°F7.8°C 45.0°F7.2°C 96% 9.0 mph SE14.5 kmh SE 16.0 mph25.7 kmh 29.24 in990.2 mb 0.00 in0.0 mm 0.00 in0.0 mm 0.02 in0.5 mm
01:54 PM 46.0°F7.8°C 45.0°F7.2°C 96% 6.0 mph SE9.7 kmh SE 11.0 mph17.7 kmh 29.23 in989.8 mb 0.00 in0.0 mm 0.00 in0.0 mm 0.02 in0.5 mm
01:59 PM 46.0°F7.8°C 45.0°F7.2°C 96% 7.0 mph SE11.3 kmh SE 10.0 mph16.1 kmh 29.23 in989.8 mb 0.00 in0.0 mm 0.00 in0.0 mm 0.02 in0.5 mm
02:04 PM 46.0°F7.8°C 45.0°F7.2°C 96% 4.0 mph S6.4 kmh S 6.0 mph9.7 kmh 29.24 in990.2 mb 0.00 in0.0 mm 0.00 in0.0 mm 0.02 in0.5 mm
02:09 PM 46.2°F7.9°C 45.1°F7.3°C 96% 7.0 mph SSE11.3 kmh SSE 11.0 mph17.7 kmh 29.23 in989.8 mb 0.00 in0.0 mm 0.00 in0.0 mm 0.02 in0.5 mm
02:14 PM 46.6°F8.1°C 45.5°F7.5°C 96% 5.0 mph SE8.0 kmh SE 8.0 mph12.9 kmh 29.23 in989.8 mb 0.00 in0.0 mm 0.00 in0.0 mm 0.02 in0.5 mm
02:19 PM 46.8°F8.2°C 45.7°F7.6°C 96% 6.0 mph SSE9.7 kmh SSE 9.0 mph14.5 kmh 29.22 in989.5 mb 0.00 in0.0 mm 0.00 in0.0 mm 0.02 in0.5 mm
02:24 PM 46.9°F8.3°C 45.9°F7.7°C 96% 5.0 mph SSW8.0 kmh SSW 8.0 mph12.9 kmh 29.22 in989.5 mb 0.00 in0.0 mm 0.00 in0.0 mm 0.03 in0.8 mm
02:29 PM 47.1°F8.4°C 46.0°F7.8°C 96% 7.0 mph SSE11.3 kmh SSE 10.0 mph16.1 kmh 29.22 in989.5 mb 0.00 in0.0 mm 0.00 in0.0 mm 0.03 in0.8 mm
02:34 PM 47.7°F8.7°C 46.6°F8.1°C 96% 7.0 mph S11.3 kmh S 11.0 mph17.7 kmh 29.22 in989.5 mb 0.00 in0.0 mm 0.00 in0.0 mm 0.03 in0.8 mm
02:39 PM 48.0°F8.9°C 46.9°F8.3°C 96% 8.0 mph SSW12.9 kmh SSW 14.0 mph22.5 kmh 29.21 in989.2 mb 0.00 in0.0 mm 0.00 in0.0 mm 0.03 in0.8 mm
02:44 PM 48.6°F9.2°C 47.5°F8.6°C 96% 7.0 mph S11.3 kmh S 9.0 mph14.5 kmh 29.21 in989.2 mb 0.00 in0.0 mm 0.00 in0.0 mm 0.03 in0.8 mm
02:49 PM 48.6°F9.2°C 47.5°F8.6°C 96% 9.0 mph SSW14.5 kmh SSW 15.0 mph24.1 kmh 29.21 in989.2 mb 0.00 in0.0 mm 0.00 in0.0 mm 0.03 in0.8 mm
02:54 PM 48.7°F9.3°C 47.7°F8.7°C 96% 7.0 mph SW11.3 kmh SW 9.0 mph14.5 kmh 29.21 in989.2 mb 0.00 in0.0 mm 0.00 in0.0 mm 0.03 in0.8 mm
02:59 PM 48.9°F9.4°C 47.8°F8.8°C 96% 8.0 mph SW12.9 kmh SW 13.0 mph20.9 kmh 29.21 in989.2 mb 0.00 in0.0 mm 0.00 in0.0 mm 0.03 in0.8 mm
03:04 PM 49.1°F9.5°C 48.0°F8.9°C 96% 8.0 mph SSW12.9 kmh SSW 13.0 mph20.9 kmh 29.21 in989.2 mb 0.00 in0.0 mm 0.00 in0.0 mm 0.03 in0.8 mm
03:09 PM 49.1°F9.5°C 48.0°F8.9°C 96% 10.0 mph SW16.1 kmh SW 17.0 mph27.4 kmh 29.21 in989.2 mb 0.00 in0.0 mm 0.00 in0.0 mm 0.03 in0.8 mm
03:14 PM 49.3°F9.6°C 48.5°F9.2°C 97% 10.0 mph SSW16.1 kmh SSW 15.0 mph24.1 kmh 29.21 in989.2 mb 0.00 in0.0 mm 0.00 in0.0 mm 0.03 in0.8 mm
03:19 PM 49.5°F9.7°C 48.6°F9.2°C 97% 13.0 mph SW20.9 kmh SW 18.0 mph29.0 kmh 29.21 in989.2 mb 0.00 in0.0 mm 0.00 in0.0 mm 0.03 in0.8 mm
03:24 PM 49.6°F9.8°C 48.8°F9.3°C 97% 15.0 mph SW24.1 kmh SW 20.0 mph32.2 kmh 29.21 in989.2 mb 0.00 in0.0 mm 0.00 in0.0 mm 0.03 in0.8 mm
03:29 PM 49.6°F9.8°C 48.8°F9.3°C 97% 13.0 mph SSW20.9 kmh SSW 25.0 mph40.2 kmh 29.21 in989.2 mb 0.00 in0.0 mm 0.00 in0.0 mm 0.03 in0.8 mm
03:34 PM 49.8°F9.9°C 49.0°F9.4°C 97% 12.0 mph SW19.3 kmh SW 19.0 mph30.6 kmh 29.20 in988.8 mb 0.00 in0.0 mm 0.00 in0.0 mm 0.03 in0.8 mm
03:39 PM 50.0°F10.0°C 48.9°F9.4°C 96% 10.0 mph SW16.1 kmh SW 16.0 mph25.7 kmh 29.21 in989.2 mb 0.00 in0.0 mm 0.00 in0.0 mm 0.03 in0.8 mm
03:44 PM 49.8°F9.9°C 48.7°F9.3°C 96% 12.0 mph SW19.3 kmh SW 17.0 mph27.4 kmh 29.20 in988.8 mb 0.00 in0.0 mm 0.00 in0.0 mm 0.03 in0.8 mm
03:49 PM 49.6°F9.8°C 48.5°F9.2°C 96% 11.0 mph SW17.7 kmh SW 20.0 mph32.2 kmh 29.20 in988.8 mb 0.00 in0.0 mm 0.00 in0.0 mm 0.03 in0.8 mm
03:54 PM 49.6°F9.8°C 48.5°F9.2°C 96% 11.0 mph SW17.7 kmh SW 19.0 mph30.6 kmh 29.20 in988.8 mb 0.00 in0.0 mm 0.00 in0.0 mm 0.03 in0.8 mm
03:59 PM 49.6°F9.8°C 48.5°F9.2°C 96% 11.0 mph SW17.7 kmh SW 17.0 mph27.4 kmh 29.20 in988.8 mb 0.00 in0.0 mm 0.00 in0.0 mm 0.03 in0.8 mm
04:04 PM 49.6°F9.8°C 48.3°F9.1°C 95% 12.0 mph SSW19.3 kmh SSW 18.0 mph29.0 kmh 29.20 in988.8 mb 0.00 in0.0 mm 0.00 in0.0 mm 0.03 in0.8 mm
04:09 PM 49.8°F9.9°C 48.4°F9.1°C 95% 12.0 mph SW19.3 kmh SW 21.0 mph33.8 kmh 29.20 in988.8 mb 0.00 in0.0 mm 0.00 in0.0 mm 0.03 in0.8 mm
04:14 PM 49.8°F9.9°C 48.4°F9.1°C 95% 10.0 mph SW16.1 kmh SW 17.0 mph27.4 kmh 29.20 in988.8 mb 0.00 in0.0 mm 0.00 in0.0 mm 0.03 in0.8 mm
04:19 PM 50.0°F10.0°C 48.6°F9.2°C 95% 12.0 mph SW19.3 kmh SW 20.0 mph32.2 kmh 29.20 in988.8 mb 0.00 in0.0 mm 0.00 in0.0 mm 0.03 in0.8 mm
04:24 PM 49.8°F9.9°C 48.4°F9.1°C 95% 11.0 mph SSW17.7 kmh SSW 15.0 mph24.1 kmh 29.20 in988.8 mb 0.00 in0.0 mm 0.00 in0.0 mm 0.03 in0.8 mm
04:29 PM 49.8°F9.9°C 48.4°F9.1°C 95% 16.0 mph SW25.7 kmh SW 22.0 mph35.4 kmh 29.20 in988.8 mb 0.00 in0.0 mm 0.00 in0.0 mm 0.03 in0.8 mm
04:34 PM 49.8°F9.9°C 48.2°F9.0°C 94% 10.0 mph S16.1 kmh S 16.0 mph25.7 kmh 29.20 in988.8 mb 0.00 in0.0 mm 0.00 in0.0 mm 0.03 in0.8 mm
04:39 PM 49.8°F9.9°C 48.2°F9.0°C 94% 15.0 mph SW24.1 kmh SW 23.0 mph37.0 kmh 29.19 in988.5 mb 0.00 in0.0 mm 0.00 in0.0 mm 0.03 in0.8 mm
04:44 PM 49.6°F9.8°C 47.7°F8.7°C 93% 13.0 mph SSW20.9 kmh SSW 18.0 mph29.0 kmh 29.19 in988.5 mb 0.00 in0.0 mm 0.00 in0.0 mm 0.03 in0.8 mm
04:49 PM 49.6°F9.8°C 47.7°F8.7°C 93% 12.0 mph SSW19.3 kmh SSW 17.0 mph27.4 kmh 29.19 in988.5 mb 0.00 in0.0 mm 0.00 in0.0 mm 0.03 in0.8 mm
04:54 PM 49.5°F9.7°C 47.5°F8.6°C 93% 11.0 mph SSW17.7 kmh SSW 18.0 mph29.0 kmh 29.19 in988.5 mb 0.00 in0.0 mm 0.00 in0.0 mm 0.03 in0.8 mm
04:59 PM 49.5°F9.7°C 47.5°F8.6°C 93% 13.0 mph SW20.9 kmh SW 20.0 mph32.2 kmh 29.19 in988.5 mb 0.00 in0.0 mm 0.00 in0.0 mm 0.03 in0.8 mm
05:04 PM 49.5°F9.7°C 47.5°F8.6°C 93% 13.0 mph SW20.9 kmh SW 24.0 mph38.6 kmh 29.19 in988.5 mb 0.00 in0.0 mm 0.00 in0.0 mm 0.03 in0.8 mm
05:09 PM 49.5°F9.7°C 47.5°F8.6°C 93% 10.0 mph S16.1 kmh S 21.0 mph33.8 kmh 29.19 in988.5 mb 0.00 in0.0 mm 0.00 in0.0 mm 0.03 in0.8 mm
05:14 PM 49.6°F9.8°C 47.4°F8.6°C 92% 9.0 mph SW14.5 kmh SW 14.0 mph22.5 kmh 29.19 in988.5 mb 0.00 in0.0 mm 0.00 in0.0 mm 0.03 in0.8 mm
05:19 PM 49.6°F9.8°C 47.4°F8.6°C 92% 15.0 mph WSW24.1 kmh WSW 21.0 mph33.8 kmh 29.18 in988.1 mb 0.00 in0.0 mm 0.00 in0.0 mm 0.03 in0.8 mm
05:24 PM 49.6°F9.8°C 47.4°F8.6°C 92% 18.0 mph SW29.0 kmh SW 31.0 mph49.9 kmh 29.19 in988.5 mb 0.00 in0.0 mm 0.00 in0.0 mm 0.03 in0.8 mm
05:29 PM 49.6°F9.8°C 47.1°F8.4°C 91% 18.0 mph SW29.0 kmh SW 32.0 mph51.5 kmh 29.19 in988.5 mb 0.00 in0.0 mm 0.00 in0.0 mm 0.03 in0.8 mm
05:34 PM 49.6°F9.8°C 47.1°F8.4°C 91% 14.0 mph SW22.5 kmh SW 21.0 mph33.8 kmh 29.19 in988.5 mb 0.00 in0.0 mm 0.00 in0.0 mm 0.03 in0.8 mm
05:39 PM 49.6°F9.8°C 47.1°F8.4°C 91% 17.0 mph SW27.4 kmh SW 22.0 mph35.4 kmh 29.19 in988.5 mb 0.00 in0.0 mm 0.00 in0.0 mm 0.03 in0.8 mm
05:44 PM 49.6°F9.8°C 46.8°F8.2°C 90% 12.0 mph SW19.3 kmh SW 19.0 mph30.6 kmh 29.19 in988.5 mb 0.00 in0.0 mm 0.00 in0.0 mm 0.03 in0.8 mm
05:49 PM 49.6°F9.8°C 46.8°F8.2°C 90% 16.0 mph SW25.7 kmh SW 25.0 mph40.2 kmh 29.19 in988.5 mb 0.00 in0.0 mm 0.00 in0.0 mm 0.03 in0.8 mm
05:54 PM 49.6°F9.8°C 46.8°F8.2°C 90% 19.0 mph SW30.6 kmh SW 30.0 mph48.3 kmh 29.19 in988.5 mb 0.00 in0.0 mm 0.00 in0.0 mm 0.03 in0.8 mm
05:59 PM 49.6°F9.8°C 46.8°F8.2°C 90% 15.0 mph SSW24.1 kmh SSW 24.0 mph38.6 kmh 29.19 in988.5 mb 0.00 in0.0 mm 0.00 in0.0 mm 0.03 in0.8 mm
06:04 PM 49.6°F9.8°C 46.5°F8.1°C 89% 10.0 mph SW16.1 kmh SW 19.0 mph30.6 kmh 29.20 in988.8 mb 0.00 in0.0 mm 0.00 in0.0 mm 0.03 in0.8 mm
06:09 PM 49.6°F9.8°C 46.5°F8.1°C 89% 14.0 mph SW22.5 kmh SW 23.0 mph37.0 kmh 29.19 in988.5 mb 0.00 in0.0 mm 0.00 in0.0 mm 0.03 in0.8 mm
06:14 PM 49.6°F9.8°C 46.5°F8.1°C 89% 12.0 mph SW19.3 kmh SW 21.0 mph33.8 kmh 29.20 in988.8 mb 0.00 in0.0 mm 0.00 in0.0 mm 0.03 in0.8 mm
06:19 PM 49.6°F9.8°C 46.5°F8.1°C 89% 13.0 mph SW20.9 kmh SW 20.0 mph32.2 kmh 29.20 in988.8 mb 0.00 in0.0 mm 0.00 in0.0 mm 0.03 in0.8 mm
06:24 PM 49.6°F9.8°C 46.2°F7.9°C 88% 13.0 mph SW20.9 kmh SW 19.0 mph30.6 kmh 29.20 in988.8 mb 0.00 in0.0 mm 0.00 in0.0 mm 0.03 in0.8 mm
06:29 PM 49.6°F9.8°C 45.9°F7.7°C 87% 16.0 mph SW25.7 kmh SW 27.0 mph43.5 kmh 29.20 in988.8 mb 0.00 in0.0 mm 0.00 in0.0 mm 0.03 in0.8 mm
06:34 PM 50.2°F10.1°C 45.5°F7.5°C 84% 14.0 mph SW22.5 kmh SW 24.0 mph38.6 kmh 29.20 in988.8 mb 0.00 in0.0 mm 0.00 in0.0 mm 0.03 in0.8 mm
06:39 PM 50.2°F10.1°C 45.2°F7.3°C 83% 10.0 mph SW16.1 kmh SW 19.0 mph30.6 kmh 29.21 in989.2 mb 0.00 in0.0 mm 0.00 in0.0 mm 0.03 in0.8 mm
06:44 PM 49.8°F9.9°C 44.6°F7.0°C 82% 16.0 mph SW25.7 kmh SW 22.0 mph35.4 kmh 29.21 in989.2 mb 0.00 in0.0 mm 0.00 in0.0 mm 0.03 in0.8 mm
06:49 PM 49.8°F9.9°C 44.6°F7.0°C 82% 15.0 mph WSW24.1 kmh WSW 34.0 mph54.7 kmh 29.21 in989.2 mb 0.00 in0.0 mm 0.00 in0.0 mm 0.03 in0.8 mm
06:54 PM 50.0°F10.0°C 44.7°F7.1°C 82% 11.0 mph WSW17.7 kmh WSW 19.0 mph30.6 kmh 29.21 in989.2 mb 0.00 in0.0 mm 0.00 in0.0 mm 0.03 in0.8 mm
06:59 PM 49.8°F9.9°C 44.6°F7.0°C 82% 10.0 mph SW16.1 kmh SW 18.0 mph29.0 kmh 29.21 in989.2 mb 0.00 in0.0 mm 0.00 in0.0 mm 0.03 in0.8 mm
07:04 PM 49.8°F9.9°C 44.2°F6.8°C 81% 13.0 mph WSW20.9 kmh WSW 22.0 mph35.4 kmh 29.22 in989.5 mb 0.00 in0.0 mm 0.00 in0.0 mm 0.03 in0.8 mm
07:09 PM 49.6°F9.8°C 44.1°F6.7°C 81% 11.0 mph W17.7 kmh W 17.0 mph27.4 kmh 29.22 in989.5 mb 0.00 in0.0 mm 0.00 in0.0 mm 0.03 in0.8 mm
07:14 PM 49.5°F9.7°C 43.9°F6.6°C 81% 16.0 mph SW25.7 kmh SW 21.0 mph33.8 kmh 29.22 in989.5 mb 0.00 in0.0 mm 0.00 in0.0 mm 0.03 in0.8 mm
07:19 PM 49.5°F9.7°C 43.6°F6.4°C 80% 19.0 mph WSW30.6 kmh WSW 32.0 mph51.5 kmh 29.23 in989.8 mb 0.00 in0.0 mm 0.00 in0.0 mm 0.03 in0.8 mm
07:24 PM 49.3°F9.6°C 43.4°F6.3°C 80% 11.0 mph SW17.7 kmh SW 21.0 mph33.8 kmh 29.23 in989.8 mb 0.00 in0.0 mm 0.00 in0.0 mm 0.03 in0.8 mm
07:29 PM 49.3°F9.6°C 43.4°F6.3°C 80% 15.0 mph SW24.1 kmh SW 27.0 mph43.5 kmh 29.23 in989.8 mb 0.00 in0.0 mm 0.00 in0.0 mm 0.03 in0.8 mm
07:34 PM 49.3°F9.6°C 43.4°F6.3°C 80% 15.0 mph W24.1 kmh W 31.0 mph49.9 kmh 29.23 in989.8 mb 0.00 in0.0 mm 0.00 in0.0 mm 0.03 in0.8 mm
07:39 PM 49.3°F9.6°C 43.4°F6.3°C 80% 18.0 mph WSW29.0 kmh WSW 31.0 mph49.9 kmh 29.23 in989.8 mb 0.00 in0.0 mm 0.00 in0.0 mm 0.03 in0.8 mm
07:44 PM 49.3°F9.6°C 43.1°F6.2°C 79% 15.0 mph SSW24.1 kmh SSW 26.0 mph41.8 kmh 29.24 in990.2 mb 0.00 in0.0 mm 0.00 in0.0 mm 0.03 in0.8 mm
07:49 PM 49.1°F9.5°C 42.9°F6.1°C 79% 16.0 mph WSW25.7 kmh WSW 21.0 mph33.8 kmh 29.24 in990.2 mb 0.00 in0.0 mm 0.00 in0.0 mm 0.03 in0.8 mm
07:54 PM 48.9°F9.4°C 42.7°F5.9°C 79% 18.0 mph WSW29.0 kmh WSW 36.0 mph57.9 kmh 29.24 in990.2 mb 0.00 in0.0 mm 0.00 in0.0 mm 0.03 in0.8 mm
07:59 PM 48.9°F9.4°C 42.7°F5.9°C 79% 20.0 mph W32.2 kmh W 29.0 mph46.7 kmh 29.25 in990.5 mb 0.00 in0.0 mm 0.00 in0.0 mm 0.03 in0.8 mm
08:04 PM 48.6°F9.2°C 42.0°F5.6°C 78% 22.0 mph W35.4 kmh W 40.0 mph64.4 kmh 29.25 in990.5 mb 0.00 in0.0 mm 0.00 in0.0 mm 0.03 in0.8 mm
08:09 PM 48.4°F9.1°C 41.8°F5.4°C 78% 23.0 mph W37.0 kmh W 31.0 mph49.9 kmh 29.26 in990.9 mb 0.00 in0.0 mm 0.00 in0.0 mm 0.03 in0.8 mm
08:14 PM 48.0°F8.9°C 41.5°F5.3°C 78% 20.0 mph WSW32.2 kmh WSW 27.0 mph43.5 kmh 29.26 in990.9 mb 0.00 in0.0 mm 0.00 in0.0 mm 0.03 in0.8 mm
08:19 PM 47.8°F8.8°C 41.0°F5.0°C 77% 20.0 mph WSW32.2 kmh WSW 27.0 mph43.5 kmh 29.26 in990.9 mb 0.00 in0.0 mm 0.00 in0.0 mm 0.03 in0.8 mm
08:24 PM 47.7°F8.7°C 40.5°F4.7°C 76% 19.0 mph W30.6 kmh W 27.0 mph43.5 kmh 29.27 in991.2 mb 0.00 in0.0 mm 0.00 in0.0 mm 0.03 in0.8 mm
08:29 PM 47.5°F8.6°C 40.3°F4.6°C 76% 20.0 mph WSW32.2 kmh WSW 27.0 mph43.5 kmh 29.27 in991.2 mb 0.00 in0.0 mm 0.00 in0.0 mm 0.03 in0.8 mm
08:34 PM 47.5°F8.6°C 40.6°F4.8°C 77% 21.0 mph WSW33.8 kmh WSW 29.0 mph46.7 kmh 29.27 in991.2 mb 0.00 in0.0 mm 0.00 in0.0 mm 0.03 in0.8 mm
08:39 PM 47.3°F8.5°C 40.5°F4.7°C 77% 20.0 mph W32.2 kmh W 35.0 mph56.3 kmh 29.28 in991.5 mb 0.00 in0.0 mm 0.00 in0.0 mm 0.03 in0.8 mm
08:44 PM 47.1°F8.4°C 40.3°F4.6°C 77% 23.0 mph W37.0 kmh W 37.0 mph59.5 kmh 29.29 in991.9 mb 0.00 in0.0 mm 0.00 in0.0 mm 0.03 in0.8 mm
08:49 PM 47.1°F8.4°C 40.3°F4.6°C 77% 24.0 mph W38.6 kmh W 39.0 mph62.8 kmh 29.29 in991.9 mb 0.00 in0.0 mm 0.00 in0.0 mm 0.03 in0.8 mm
08:54 PM 47.1°F8.4°C 40.0°F4.4°C 76% 17.0 mph WSW27.4 kmh WSW 23.0 mph37.0 kmh 29.29 in991.9 mb 0.00 in0.0 mm 0.00 in0.0 mm 0.03 in0.8 mm
08:59 PM 46.9°F8.3°C 40.1°F4.5°C 77% 20.0 mph W32.2 kmh W 25.0 mph40.2 kmh 29.29 in991.9 mb 0.00 in0.0 mm 0.00 in0.0 mm 0.03 in0.8 mm
09:04 PM 46.9°F8.3°C 39.8°F4.3°C 76% 24.0 mph W38.6 kmh W 31.0 mph49.9 kmh 29.29 in991.9 mb 0.00 in0.0 mm 0.00 in0.0 mm 0.03 in0.8 mm
09:09 PM 46.8°F8.2°C 39.6°F4.2°C 76% 25.0 mph WSW40.2 kmh WSW 34.0 mph54.7 kmh 29.29 in991.9 mb 0.00 in0.0 mm 0.00 in0.0 mm 0.03 in0.8 mm
09:14 PM 46.8°F8.2°C 39.9°F4.4°C 77% 19.0 mph W30.6 kmh W 28.0 mph45.1 kmh 29.29 in991.9 mb 0.00 in0.0 mm 0.00 in0.0 mm 0.03 in0.8 mm
09:19 PM 46.8°F8.2°C 40.3°F4.6°C 78% 14.0 mph W22.5 kmh W 22.0 mph35.4 kmh 29.30 in992.2 mb 0.00 in0.0 mm 0.00 in0.0 mm 0.03 in0.8 mm
09:24 PM 46.6°F8.1°C 40.1°F4.5°C 78% 18.0 mph WSW29.0 kmh WSW 24.0 mph38.6 kmh 29.29 in991.9 mb 0.00 in0.0 mm 0.00 in0.0 mm 0.03 in0.8 mm
09:29 PM 46.6°F8.1°C 40.1°F4.5°C 78% 18.0 mph WSW29.0 kmh WSW 25.0 mph40.2 kmh 29.30 in992.2 mb 0.00 in0.0 mm 0.00 in0.0 mm 0.03 in0.8 mm
09:34 PM 46.4°F8.0°C 39.9°F4.4°C 78% 20.0 mph W32.2 kmh W 28.0 mph45.1 kmh 29.30 in992.2 mb 0.00 in0.0 mm 0.00 in0.0 mm 0.03 in0.8 mm
09:39 PM 46.2°F7.9°C 39.4°F4.1°C 77% 17.0 mph WSW27.4 kmh WSW 27.0 mph43.5 kmh 29.30 in992.2 mb 0.00 in0.0 mm 0.00 in0.0 mm 0.03 in0.8 mm
09:44 PM 46.2°F7.9°C 39.8°F4.3°C 78% 15.0 mph WSW24.1 kmh WSW 22.0 mph35.4 kmh 29.30 in992.2 mb 0.00 in0.0 mm 0.00 in0.0 mm 0.03 in0.8 mm
09:49 PM 46.0°F7.8°C 39.9°F4.4°C 79% 16.0 mph W25.7 kmh W 21.0 mph33.8 kmh 29.31 in992.6 mb 0.00 in0.0 mm 0.00 in0.0 mm 0.03 in0.8 mm
09:54 PM 46.0°F7.8°C 39.9°F4.4°C 79% 15.0 mph WSW24.1 kmh WSW 28.0 mph45.1 kmh 29.30 in992.2 mb 0.00 in0.0 mm 0.00 in0.0 mm 0.03 in0.8 mm
09:59 PM 46.0°F7.8°C 39.9°F4.4°C 79% 15.0 mph WSW24.1 kmh WSW 24.0 mph38.6 kmh 29.31 in992.6 mb 0.00 in0.0 mm 0.00 in0.0 mm 0.03 in0.8 mm
10:04 PM 46.0°F7.8°C 39.9°F4.4°C 79% 16.0 mph W25.7 kmh W 22.0 mph35.4 kmh 29.31 in992.6 mb 0.00 in0.0 mm 0.00 in0.0 mm 0.03 in0.8 mm
10:09 PM 45.9°F7.7°C 39.7°F4.3°C 79% 16.0 mph W25.7 kmh W 23.0 mph37.0 kmh 29.31 in992.6 mb 0.00 in0.0 mm 0.00 in0.0 mm 0.03 in0.8 mm
10:14 PM 46.0°F7.8°C 39.9°F4.4°C 79% 12.0 mph WSW19.3 kmh WSW 20.0 mph32.2 kmh 29.31 in992.6 mb 0.00 in0.0 mm 0.00 in0.0 mm 0.03 in0.8 mm
10:19 PM 46.0°F7.8°C 39.9°F4.4°C 79% 12.0 mph W19.3 kmh W 25.0 mph40.2 kmh 29.31 in992.6 mb 0.00 in0.0 mm 0.00 in0.0 mm 0.03 in0.8 mm
10:24 PM 46.0°F7.8°C 39.6°F4.2°C 78% 10.0 mph WSW16.1 kmh WSW 15.0 mph24.1 kmh 29.31 in992.6 mb 0.00 in0.0 mm 0.00 in0.0 mm 0.03 in0.8 mm
10:29 PM 46.2°F7.9°C 39.8°F4.3°C 78% 17.0 mph W27.4 kmh W 33.0 mph53.1 kmh 29.32 in992.9 mb 0.00 in0.0 mm 0.00 in0.0 mm 0.03 in0.8 mm
10:34 PM 46.2°F7.9°C 39.8°F4.3°C 78% 12.0 mph W19.3 kmh W 17.0 mph27.4 kmh 29.32 in992.9 mb 0.00 in0.0 mm 0.00 in0.0 mm 0.03 in0.8 mm
10:39 PM 46.2°F7.9°C 39.8°F4.3°C 78% 14.0 mph SW22.5 kmh SW 26.0 mph41.8 kmh 29.32 in992.9 mb 0.00 in0.0 mm 0.00 in0.0 mm 0.03 in0.8 mm
10:44 PM 46.2°F7.9°C 40.1°F4.5°C 79% 10.0 mph W16.1 kmh W 18.0 mph29.0 kmh 29.33 in993.2 mb 0.00 in0.0 mm 0.00 in0.0 mm 0.03 in0.8 mm
10:49 PM 46.2°F7.9°C 39.8°F4.3°C 78% 13.0 mph SW20.9 kmh SW 22.0 mph35.4 kmh 29.33 in993.2 mb 0.00 in0.0 mm 0.00 in0.0 mm 0.03 in0.8 mm
10:54 PM 46.2°F7.9°C 39.8°F4.3°C 78% 17.0 mph WSW27.4 kmh WSW 26.0 mph41.8 kmh 29.33 in993.2 mb 0.00 in0.0 mm 0.00 in0.0 mm 0.03 in0.8 mm
10:59 PM 46.2°F7.9°C 39.8°F4.3°C 78% 11.0 mph W17.7 kmh W 18.0 mph29.0 kmh 29.33 in993.2 mb 0.00 in0.0 mm 0.00 in0.0 mm 0.03 in0.8 mm
11:04 PM 46.0°F7.8°C 39.6°F4.2°C 78% 14.0 mph W22.5 kmh W 23.0 mph37.0 kmh 29.32 in992.9 mb 0.00 in0.0 mm 0.00 in0.0 mm 0.03 in0.8 mm
11:09 PM 46.0°F7.8°C 39.6°F4.2°C 78% 11.0 mph WSW17.7 kmh WSW 17.0 mph27.4 kmh 29.32 in992.9 mb 0.00 in0.0 mm 0.00 in0.0 mm 0.03 in0.8 mm
11:14 PM 46.0°F7.8°C 39.2°F4.0°C 77% 14.0 mph W22.5 kmh W 20.0 mph32.2 kmh 29.32 in992.9 mb 0.00 in0.0 mm 0.00 in0.0 mm 0.03 in0.8 mm
11:19 PM 46.0°F7.8°C 39.2°F4.0°C 77% 15.0 mph W24.1 kmh W 20.0 mph32.2 kmh 29.32 in992.9 mb 0.00 in0.0 mm 0.00 in0.0 mm 0.03 in0.8 mm
11:24 PM 46.2°F7.9°C 39.8°F4.3°C 78% 12.0 mph SW19.3 kmh SW 19.0 mph30.6 kmh 29.33 in993.2 mb 0.00 in0.0 mm 0.00 in0.0 mm 0.03 in0.8 mm
11:29 PM 46.2°F7.9°C 39.8°F4.3°C 78% 12.0 mph WSW19.3 kmh WSW 27.0 mph43.5 kmh 29.33 in993.2 mb 0.00 in0.0 mm 0.00 in0.0 mm 0.03 in0.8 mm
11:34 PM 46.2°F7.9°C 39.8°F4.3°C 78% 12.0 mph SW19.3 kmh SW 21.0 mph33.8 kmh 29.33 in993.2 mb 0.00 in0.0 mm 0.00 in0.0 mm 0.03 in0.8 mm
11:39 PM 46.0°F7.8°C 39.6°F4.2°C 78% 14.0 mph SW22.5 kmh SW 24.0 mph38.6 kmh 29.34 in993.6 mb 0.00 in0.0 mm 0.00 in0.0 mm 0.03 in0.8 mm
11:44 PM 46.0°F7.8°C 39.9°F4.4°C 79% 12.0 mph SW19.3 kmh SW 17.0 mph27.4 kmh 29.33 in993.2 mb 0.00 in0.0 mm 0.00 in0.0 mm 0.03 in0.8 mm
11:49 PM 46.2°F7.9°C 40.1°F4.5°C 79% 15.0 mph SW24.1 kmh SW 21.0 mph33.8 kmh 29.33 in993.2 mb 0.00 in0.0 mm 0.00 in0.0 mm 0.03 in0.8 mm
11:54 PM 46.0°F7.8°C 39.9°F4.4°C 79% 12.0 mph SW19.3 kmh SW 20.0 mph32.2 kmh 29.33 in993.2 mb 0.00 in0.0 mm 0.00 in0.0 mm 0.03 in0.8 mm
11:59 PM 46.2°F7.9°C 40.1°F4.5°C 79% 16.0 mph WSW25.7 kmh WSW 26.0 mph41.8 kmh 29.33 in993.2 mb 0.00 in0.0 mm 0.00 in0.0 mm 0.03 in0.8 mm